createdAt,value
2018-07-01T00:01:35.920Z,43.86
2018-07-01T00:04:05.839Z,43.76
2018-07-01T00:06:35.434Z,44.18
2018-07-01T00:09:06.789Z,44.18
2018-07-01T00:11:36.459Z,44.40
2018-07-01T00:14:05.977Z,44.40
2018-07-01T00:16:35.699Z,44.63
2018-07-01T00:19:05.393Z,44.47
2018-07-01T00:21:34.958Z,44.57
2018-07-01T00:24:04.740Z,44.33
2018-07-01T00:26:34.407Z,44.96
2018-07-01T00:29:03.971Z,44.62
2018-07-01T00:31:33.685Z,44.14
2018-07-01T00:34:03.417Z,44.54
2018-07-01T00:36:33.032Z,44.57
2018-07-01T00:39:02.824Z,44.18
2018-07-01T00:41:32.447Z,44.39
2018-07-01T00:44:01.810Z,44.34
2018-07-01T00:46:31.601Z,44.23
2018-07-01T00:49:01.655Z,44.96
2018-07-01T00:51:31.090Z,44.81
2018-07-01T00:54:00.806Z,44.60
2018-07-01T00:56:30.666Z,44.32
2018-07-01T00:58:59.874Z,44.22
2018-07-01T01:01:29.261Z,44.25
2018-07-01T01:03:59.180Z,44.94
2018-07-01T01:06:28.960Z,44.70
2018-07-01T01:08:58.816Z,44.83
2018-07-01T01:11:28.937Z,44.50
2018-07-01T01:13:58.627Z,43.78
2018-07-01T01:16:28.498Z,43.81
2018-07-01T01:18:58.603Z,44.23
2018-07-01T01:21:28.464Z,43.96
2018-07-01T01:23:58.032Z,44.61
2018-07-01T01:26:28.042Z,44.60
2018-07-01T01:28:57.798Z,44.49
2018-07-01T01:31:27.436Z,44.62
2018-07-01T01:33:57.560Z,44.53
2018-07-01T01:36:29.376Z,44.74
2018-07-01T01:39:01.607Z,44.70
2018-07-01T01:41:42.011Z,44.64
2018-07-01T01:44:18.220Z,45.10
2018-07-01T01:46:53.475Z,44.84
2018-07-01T01:49:28.088Z,45.22
2018-07-01T01:52:03.118Z,45.65
2018-07-01T01:54:53.871Z,45.98
2018-07-01T01:57:30.891Z,46.49
2018-07-01T02:02:06.982Z,45.97
2018-07-01T02:04:46.932Z,46.59
2018-07-01T02:07:26.963Z,46.99
2018-07-01T02:09:56.572Z,46.94
2018-07-01T02:12:26.519Z,47.48
2018-07-01T02:15:00.929Z,48.04
2018-07-01T02:17:47.020Z,48.00
2018-07-01T02:20:18.266Z,48.21
2018-07-01T02:22:51.761Z,48.83
2018-07-01T02:25:23.764Z,48.75
2018-07-01T02:27:53.812Z,48.77
2018-07-01T02:30:23.629Z,48.89
2018-07-01T02:32:53.155Z,49.20
2018-07-01T02:35:23.008Z,49.17
2018-07-01T02:37:52.342Z,48.95
2018-07-01T02:40:21.777Z,48.92
2018-07-01T02:42:51.434Z,49.04
2018-07-01T02:45:21.061Z,49.10
2018-07-01T02:47:50.629Z,49.60
2018-07-01T02:50:20.410Z,49.21
2018-07-01T02:52:50.245Z,49.77
2018-07-01T02:55:19.893Z,49.65
2018-07-01T02:57:49.922Z,49.45
2018-07-01T03:00:19.419Z,49.49
2018-07-01T03:02:48.838Z,49.29
2018-07-01T03:05:18.763Z,49.00
2018-07-01T03:07:48.143Z,48.98
2018-07-01T03:10:17.531Z,48.88
2018-07-01T03:12:47.501Z,48.81
2018-07-01T03:15:16.941Z,48.99
2018-07-01T03:17:46.446Z,49.19
2018-07-01T03:20:16.346Z,48.79
2018-07-01T03:22:45.760Z,49.50
2018-07-01T03:25:15.490Z,48.98
2018-07-01T03:27:45.126Z,49.21
2018-07-01T03:30:14.604Z,48.97
2018-07-01T03:32:44.367Z,49.75
2018-07-01T03:35:13.873Z,49.61
2018-07-01T03:37:43.455Z,49.04
2018-07-01T03:40:12.898Z,49.71
2018-07-01T03:42:42.812Z,49.56
2018-07-01T03:45:11.937Z,49.92
2018-07-01T03:47:41.615Z,49.53
2018-07-01T03:50:12.008Z,49.33
2018-07-01T03:52:42.037Z,49.70
2018-07-01T03:55:13.075Z,49.84
2018-07-01T03:57:42.605Z,49.50
2018-07-01T04:00:12.930Z,49.68
2018-07-01T04:02:43.426Z,49.57
2018-07-01T04:05:12.889Z,50.55
2018-07-01T04:07:42.922Z,50.41
2018-07-01T04:10:12.926Z,50.83
2018-07-01T04:12:42.678Z,51.22
2018-07-01T04:15:12.684Z,51.91
2018-07-01T04:17:42.568Z,52.30
2018-07-01T04:20:12.853Z,52.32
2018-07-01T04:22:42.672Z,52.36
2018-07-01T04:25:12.864Z,52.22
2018-07-01T04:27:42.973Z,52.60
2018-07-01T04:30:12.784Z,51.98
2018-07-01T04:32:42.742Z,52.02
2018-07-01T04:35:12.711Z,52.17
2018-07-01T04:37:42.297Z,51.86
2018-07-01T04:40:12.593Z,51.57
2018-07-01T04:42:42.704Z,51.81
2018-07-01T04:45:12.704Z,51.77
2018-07-01T04:47:42.666Z,51.53
2018-07-01T04:50:13.184Z,51.32
2018-07-01T04:52:43.404Z,51.19
2018-07-01T04:55:13.629Z,50.86
2018-07-01T04:57:43.580Z,50.76
2018-07-01T05:00:13.321Z,50.58
2018-07-01T05:02:42.980Z,50.14
2018-07-01T05:05:12.683Z,50.22
2018-07-01T05:07:42.224Z,49.90
2018-07-01T05:10:11.869Z,49.95
2018-07-01T05:12:41.834Z,49.78
2018-07-01T05:15:11.376Z,49.22
2018-07-01T05:17:40.820Z,49.10
2018-07-01T05:20:10.964Z,48.37
2018-07-01T05:22:40.307Z,48.85
2018-07-01T05:25:09.777Z,48.59
2018-07-01T05:27:39.930Z,47.61
2018-07-01T05:30:09.318Z,47.91
2018-07-01T05:32:38.781Z,47.50
2018-07-01T05:35:08.931Z,47.41
2018-07-01T05:37:38.649Z,47.34
2018-07-01T05:40:08.059Z,46.86
2018-07-01T05:42:38.080Z,46.66
2018-07-01T05:45:07.765Z,46.82
2018-07-01T05:47:37.293Z,46.79
2018-07-01T05:50:07.072Z,46.59
2018-07-01T05:52:36.588Z,45.39
2018-07-01T05:55:06.159Z,45.73
2018-07-01T05:57:35.945Z,45.59
2018-07-01T06:00:05.967Z,44.75
2018-07-01T06:02:35.652Z,44.50
2018-07-01T06:05:05.612Z,44.17
2018-07-01T06:07:35.015Z,44.28
2018-07-01T06:10:04.704Z,43.46
2018-07-01T06:12:34.488Z,43.32
2018-07-01T06:15:03.920Z,42.56
2018-07-01T06:17:33.569Z,42.02
2018-07-01T06:20:03.263Z,42.18
2018-07-01T06:22:32.785Z,42.09
2018-07-01T06:25:02.564Z,41.24
2018-07-01T06:27:32.147Z,41.00
2018-07-01T06:30:01.588Z,40.58
2018-07-01T06:32:31.160Z,40.95
2018-07-01T06:35:00.771Z,40.25
2018-07-01T06:37:30.305Z,39.56
2018-07-01T06:40:00.051Z,39.20
2018-07-01T06:42:29.853Z,39.28
2018-07-01T06:44:59.140Z,38.80
2018-07-01T06:47:28.992Z,39.05
2018-07-01T06:49:58.537Z,38.00
2018-07-01T06:52:27.839Z,38.49
2018-07-01T06:54:57.473Z,37.75
2018-07-01T06:57:27.396Z,37.67
2018-07-01T06:59:57.162Z,37.72
2018-07-01T07:02:26.559Z,37.13
2018-07-01T07:04:56.662Z,36.64
2018-07-01T07:07:26.143Z,37.02
2018-07-01T07:09:55.591Z,36.86
2018-07-01T07:12:25.052Z,36.85
2018-07-01T07:14:54.896Z,36.66
2018-07-01T07:17:24.359Z,36.53
2018-07-01T07:19:53.875Z,36.23
2018-07-01T07:22:23.383Z,35.88
2018-07-01T07:24:52.521Z,35.27
2018-07-01T07:27:21.920Z,35.42
2018-07-01T07:29:51.524Z,35.52
2018-07-01T07:32:20.573Z,35.67
2018-07-01T07:34:50.400Z,35.27
2018-07-01T07:37:19.743Z,33.58
2018-07-01T07:39:48.959Z,30.54
2018-07-01T07:42:18.222Z,30.34
2018-07-01T07:44:47.817Z,29.94
2018-07-01T07:47:16.920Z,29.35
2018-07-01T07:49:46.318Z,28.43
2018-07-01T07:52:16.268Z,28.51
2018-07-01T07:54:45.527Z,28.39
2018-07-01T07:57:14.798Z,28.15
2018-07-01T07:59:44.359Z,27.30
2018-07-01T08:02:14.020Z,27.20
2018-07-01T08:04:43.454Z,26.82
2018-07-01T08:07:13.375Z,28.23
2018-07-01T08:09:43.083Z,29.21
2018-07-01T08:12:12.383Z,29.76
2018-07-01T08:14:41.870Z,29.63
2018-07-01T08:17:12.133Z,29.79
2018-07-01T08:19:41.697Z,29.98
2018-07-01T08:22:11.240Z,30.07
2018-07-01T08:24:40.659Z,29.39
2018-07-01T08:27:10.754Z,29.76
2018-07-01T08:29:39.950Z,29.88
2018-07-01T08:32:09.806Z,29.73
2018-07-01T08:34:39.340Z,29.21
2018-07-01T08:37:09.241Z,29.40
2018-07-01T08:39:38.874Z,29.30
2018-07-01T08:42:26.290Z,29.69
2018-07-01T08:44:56.673Z,29.23
2018-07-01T08:47:26.270Z,29.27
2018-07-01T08:49:55.745Z,29.45
2018-07-01T08:52:25.148Z,29.41
2018-07-01T08:54:54.949Z,30.06
2018-07-01T08:57:24.715Z,29.26
2018-07-01T08:59:54.269Z,28.92
2018-07-01T09:02:24.270Z,29.70
2018-07-01T09:04:53.695Z,29.29
2018-07-01T09:07:23.262Z,29.35
2018-07-01T09:09:53.216Z,28.92
2018-07-01T09:12:22.664Z,29.44
2018-07-01T09:14:52.226Z,29.00
2018-07-01T09:17:22.376Z,29.59
2018-07-01T09:19:52.084Z,29.64
2018-07-01T09:22:21.863Z,29.15
2018-07-01T09:24:51.531Z,29.40
2018-07-01T09:27:21.292Z,29.16
2018-07-01T09:29:56.004Z,29.03
2018-07-01T09:32:25.894Z,28.96
2018-07-01T09:34:55.815Z,28.54
2018-07-01T09:37:25.243Z,28.95
2018-07-01T09:39:54.781Z,29.33
2018-07-01T09:42:24.316Z,29.03
2018-07-01T09:44:53.546Z,29.06
2018-07-01T09:47:23.184Z,29.41
2018-07-01T09:49:52.763Z,29.62
2018-07-01T09:52:22.338Z,29.53
2018-07-01T09:54:52.171Z,29.81
2018-07-01T09:57:22.051Z,29.50
2018-07-01T09:59:51.599Z,28.93
2018-07-01T10:02:21.412Z,28.44
2018-07-01T10:04:51.127Z,29.50
2018-07-01T10:07:20.197Z,29.82
2018-07-01T10:09:50.081Z,29.09
2018-07-01T10:12:19.956Z,29.68
2018-07-01T10:14:49.366Z,29.59
2018-07-01T10:17:19.310Z,28.96
2018-07-01T10:19:49.203Z,29.46
2018-07-01T10:22:18.727Z,29.22
2018-07-01T10:24:49.313Z,28.38
2018-07-01T10:27:18.727Z,28.70
2018-07-01T10:29:48.277Z,28.91
2018-07-01T10:32:18.155Z,28.96
2018-07-01T10:34:47.712Z,28.58
2018-07-01T10:37:17.141Z,28.99
2018-07-01T10:39:47.004Z,29.03
2018-07-01T10:42:16.359Z,29.73
2018-07-01T10:44:45.709Z,29.54
2018-07-01T10:47:15.533Z,29.26
2018-07-01T10:49:44.986Z,29.06
2018-07-01T10:52:15.357Z,28.89
2018-07-01T10:54:45.144Z,29.17
2018-07-01T10:57:14.617Z,28.86
2018-07-01T10:59:44.042Z,28.73
2018-07-01T11:02:14.004Z,28.91
2018-07-01T11:04:43.770Z,28.66
2018-07-01T11:07:13.489Z,28.99
2018-07-01T11:09:43.260Z,28.62
2018-07-01T11:12:12.931Z,29.23
2018-07-01T11:14:42.229Z,29.15
2018-07-01T11:17:12.215Z,29.37
2018-07-01T11:19:42.158Z,28.63
2018-07-01T11:22:11.516Z,29.20
2018-07-01T11:24:41.221Z,28.95
2018-07-01T11:27:10.956Z,29.37
2018-07-01T11:29:40.386Z,28.56
2018-07-01T11:32:10.099Z,27.85
2018-07-01T11:34:39.911Z,27.75
2018-07-01T11:37:09.306Z,28.03
2018-07-01T11:39:38.945Z,28.64
2018-07-01T11:42:08.496Z,27.94
2018-07-01T11:44:38.005Z,27.39
2018-07-01T11:47:07.807Z,27.61
2018-07-01T11:49:37.629Z,27.99
2018-07-01T11:52:06.982Z,27.84
2018-07-01T11:54:36.539Z,27.30
2018-07-01T11:57:06.243Z,28.27
2018-07-01T11:59:35.667Z,27.83
2018-07-01T12:02:05.410Z,27.51
2018-07-01T12:04:35.044Z,27.52
2018-07-01T12:07:04.829Z,27.58
2018-07-01T12:09:34.619Z,27.64
2018-07-01T12:12:04.140Z,28.31
2018-07-01T12:14:33.776Z,27.57
2018-07-01T12:17:03.402Z,28.57
2018-07-01T12:19:32.877Z,27.50
2018-07-01T12:22:02.724Z,27.46
2018-07-01T12:24:32.472Z,28.00
2018-07-01T12:27:01.925Z,27.84
2018-07-01T12:29:31.417Z,27.87
2018-07-01T12:32:00.933Z,27.19
2018-07-01T12:34:30.480Z,27.20
2018-07-01T12:37:00.042Z,26.36
2018-07-01T12:39:35.453Z,26.09
2018-07-01T12:42:05.277Z,26.68
2018-07-01T12:44:34.687Z,27.00
2018-07-01T12:47:04.117Z,26.96
2018-07-01T12:49:33.855Z,26.68
2018-07-01T12:52:03.115Z,26.85
2018-07-01T12:54:32.638Z,26.13
2018-07-01T12:57:01.967Z,25.56
2018-07-01T12:59:31.188Z,25.46
2018-07-01T13:02:00.719Z,25.99
2018-07-01T13:04:30.173Z,25.86
2018-07-01T13:06:59.739Z,25.39
2018-07-01T13:09:29.653Z,25.17
2018-07-01T13:11:58.894Z,25.58
2018-07-01T13:14:28.317Z,25.60
2018-07-01T13:16:58.045Z,26.04
2018-07-01T13:19:27.403Z,26.08
2018-07-01T13:21:56.655Z,25.75
2018-07-01T13:24:26.353Z,24.94
2018-07-01T13:26:55.580Z,24.51
2018-07-01T13:29:24.767Z,24.24
2018-07-01T13:31:54.690Z,24.50
2018-07-01T13:34:24.193Z,25.08
2018-07-01T13:36:54.100Z,24.46
2018-07-01T13:39:24.116Z,25.11
2018-07-01T13:41:53.698Z,25.83
2018-07-01T13:44:23.169Z,25.55
2018-07-01T13:46:52.920Z,25.56
2018-07-01T13:49:22.089Z,25.53
2018-07-01T13:51:51.414Z,25.31
2018-07-01T13:54:20.987Z,25.01
2018-07-01T13:56:50.258Z,25.39
2018-07-01T13:59:20.047Z,25.45
2018-07-01T14:01:49.774Z,24.91
2018-07-01T14:04:19.225Z,24.69
2018-07-01T14:06:48.530Z,25.01
2018-07-01T14:09:18.354Z,25.42
2018-07-01T14:11:47.690Z,25.03
2018-07-01T14:14:16.909Z,25.36
2018-07-01T14:16:46.225Z,24.60
2018-07-01T14:19:15.514Z,24.74
2018-07-01T14:21:44.680Z,24.37
2018-07-01T14:24:14.084Z,23.64
2018-07-01T14:26:43.928Z,22.76
2018-07-01T14:29:13.152Z,22.26
2018-07-01T14:31:42.676Z,22.65
2018-07-01T14:34:11.959Z,22.67
2018-07-01T14:36:41.529Z,22.00
2018-07-01T14:39:12.970Z,21.96
2018-07-01T14:41:42.952Z,22.45
2018-07-01T14:44:12.786Z,22.63
2018-07-01T14:46:42.550Z,22.17
2018-07-01T14:49:12.034Z,22.24
2018-07-01T14:51:41.657Z,23.04
2018-07-01T14:54:11.564Z,23.05
2018-07-01T14:56:41.048Z,23.23
2018-07-01T14:59:10.860Z,22.41
2018-07-01T15:01:40.540Z,23.03
2018-07-01T15:04:10.047Z,23.17
2018-07-01T15:06:39.546Z,22.84
2018-07-01T15:09:11.590Z,23.17
2018-07-01T15:11:41.135Z,23.11
2018-07-01T15:14:10.630Z,23.40
2018-07-01T15:16:40.015Z,23.76
2018-07-01T15:19:09.624Z,23.57
2018-07-01T15:21:39.259Z,23.21
2018-07-01T15:24:08.735Z,23.86
2018-07-01T15:26:38.242Z,23.52
2018-07-01T15:29:08.224Z,23.91
2018-07-01T15:31:37.775Z,23.94
2018-07-01T15:34:07.425Z,23.47
2018-07-01T15:36:37.158Z,23.79
2018-07-01T15:39:09.450Z,23.55
2018-07-01T15:41:39.134Z,23.78
2018-07-01T15:44:08.621Z,23.53
2018-07-01T15:46:38.366Z,23.28
2018-07-01T15:49:08.066Z,22.76
2018-07-01T15:51:37.595Z,23.29
2018-07-01T15:54:07.390Z,23.41
2018-07-01T15:56:37.049Z,23.72
2018-07-01T15:59:06.648Z,22.98
2018-07-01T16:01:36.885Z,23.06
2018-07-01T16:04:06.815Z,23.05
2018-07-01T16:06:36.476Z,23.47
2018-07-01T16:09:08.749Z,23.72
2018-07-01T16:11:38.270Z,22.81
2018-07-01T16:14:07.922Z,23.09
2018-07-01T16:16:37.511Z,22.90
2018-07-01T16:19:07.843Z,23.25
2018-07-01T16:21:37.491Z,23.98
2018-07-01T16:24:07.390Z,23.88
2018-07-01T16:26:42.479Z,24.36
2018-07-01T16:29:12.417Z,23.73
2018-07-01T16:31:42.136Z,23.45
2018-07-01T16:34:11.570Z,23.22
2018-07-01T16:36:40.956Z,23.31
2018-07-01T16:39:12.596Z,23.82
2018-07-01T16:41:42.470Z,23.31
2018-07-01T16:44:12.194Z,23.20
2018-07-01T16:46:42.067Z,23.87
2018-07-01T16:49:11.630Z,23.50
2018-07-01T16:51:41.091Z,23.58
2018-07-01T16:54:10.915Z,24.13
2018-07-01T16:56:40.695Z,24.39
2018-07-01T16:59:10.527Z,24.08
2018-07-01T17:01:40.355Z,24.35
2018-07-01T17:04:10.253Z,23.98
2018-07-01T17:06:40.150Z,23.87
2018-07-01T17:09:10.219Z,23.79
2018-07-01T17:11:40.126Z,23.80
2018-07-01T17:14:09.929Z,24.48
2018-07-01T17:16:39.787Z,24.87
2018-07-01T17:19:10.041Z,24.86
2018-07-01T17:21:39.242Z,24.50
2018-07-01T17:24:08.745Z,24.04
2018-07-01T17:26:38.842Z,24.04
2018-07-01T17:29:08.111Z,23.60
2018-07-01T17:31:42.515Z,24.14
2018-07-01T17:34:12.795Z,23.43
2018-07-01T17:36:42.193Z,24.01
2018-07-01T17:39:15.217Z,23.62
2018-07-01T17:41:44.293Z,23.84
2018-07-01T17:44:13.785Z,23.85
2018-07-01T17:46:43.630Z,24.11
2018-07-01T17:49:13.370Z,24.20
2018-07-01T17:51:42.943Z,24.07
2018-07-01T17:54:12.626Z,24.28
2018-07-01T17:56:41.977Z,23.97
2018-07-01T17:59:12.084Z,24.46
2018-07-01T18:01:42.258Z,24.30
2018-07-01T18:04:14.467Z,24.47
2018-07-01T18:06:44.656Z,24.22
2018-07-01T18:09:14.568Z,24.51
2018-07-01T18:11:44.526Z,25.42
2018-07-01T18:14:14.065Z,25.07
2018-07-01T18:16:43.457Z,25.17
2018-07-01T18:19:13.300Z,25.14
2018-07-01T18:21:48.139Z,24.63
2018-07-01T18:24:42.860Z,25.67
2018-07-01T18:26:42.833Z,25.36
2018-07-01T18:29:17.870Z,25.53
2018-07-01T18:31:43.048Z,25.21
2018-07-01T18:34:12.845Z,25.05
2018-07-01T18:36:42.769Z,24.98
2018-07-01T18:39:12.996Z,24.57
2018-07-01T18:41:42.606Z,24.99
2018-07-01T18:44:12.191Z,25.50
2018-07-01T18:46:42.164Z,25.41
2018-07-01T18:49:12.412Z,26.01
2018-07-01T18:51:42.478Z,26.15
2018-07-01T18:54:12.248Z,25.97
2018-07-01T18:56:41.703Z,25.56
2018-07-01T18:59:11.702Z,26.24
2018-07-01T19:01:41.622Z,26.13
2018-07-01T19:04:11.492Z,25.63
2018-07-01T19:06:41.192Z,26.06
2018-07-01T19:09:11.683Z,26.35
2018-07-01T19:11:41.146Z,26.90
2018-07-01T19:14:11.171Z,27.07
2018-07-01T19:16:40.742Z,27.45
2018-07-01T19:19:10.707Z,27.19
2018-07-01T19:21:40.536Z,27.47
2018-07-01T19:24:10.027Z,28.04
2018-07-01T19:26:39.494Z,27.90
2018-07-01T19:29:09.406Z,28.54
2018-07-01T19:31:38.791Z,28.75
2018-07-01T19:34:08.603Z,28.30
2018-07-01T19:36:38.246Z,28.96
2018-07-01T19:39:10.127Z,28.83
2018-07-01T19:41:40.243Z,28.78
2018-07-01T19:44:09.988Z,29.40
2018-07-01T19:46:39.736Z,29.44
2018-07-01T19:49:09.633Z,29.35
2018-07-01T19:51:39.277Z,29.64
2018-07-01T19:54:08.987Z,29.79
2018-07-01T19:56:38.765Z,30.02
2018-07-01T19:59:08.497Z,29.56
2018-07-01T20:01:37.655Z,30.16
2018-07-01T20:04:07.263Z,30.13
2018-07-01T20:06:37.022Z,29.87
2018-07-01T20:09:08.667Z,30.31
2018-07-01T20:11:38.418Z,30.12
2018-07-01T20:14:07.948Z,30.43
2018-07-01T20:16:37.857Z,30.08
2018-07-01T20:19:07.493Z,30.25
2018-07-01T20:21:37.268Z,30.53
2018-07-01T20:24:07.066Z,31.10
2018-07-01T20:26:39.626Z,30.90
2018-07-01T20:29:09.442Z,30.67
2018-07-01T20:31:39.167Z,30.69
2018-07-01T20:34:08.847Z,31.03
2018-07-01T20:36:38.810Z,30.86
2018-07-01T20:39:11.006Z,31.05
2018-07-01T20:41:41.030Z,31.65
2018-07-01T20:44:10.527Z,31.39
2018-07-01T20:46:40.192Z,31.57
2018-07-01T20:49:09.948Z,31.46
2018-07-01T20:51:39.389Z,31.59
2018-07-01T20:54:08.919Z,31.58
2018-07-01T20:56:38.814Z,32.12
2018-07-01T20:59:09.322Z,31.95
2018-07-01T21:01:38.962Z,31.87
2018-07-01T21:04:08.688Z,32.33
2018-07-01T21:06:38.293Z,32.05
2018-07-01T21:09:09.870Z,32.34
2018-07-01T21:11:39.761Z,32.53
2018-07-01T21:14:09.575Z,32.42
2018-07-01T21:16:38.962Z,32.41
2018-07-01T21:19:08.479Z,32.40
2018-07-01T21:21:38.410Z,33.00
2018-07-01T21:24:07.864Z,33.31
2018-07-01T21:26:37.611Z,33.44
2018-07-01T21:29:07.304Z,33.30
2018-07-01T21:31:36.831Z,33.39
2018-07-01T21:34:06.456Z,34.09
2018-07-01T21:36:36.327Z,34.17
2018-07-01T21:39:08.341Z,34.47
2018-07-01T21:41:38.353Z,34.32
2018-07-01T21:44:08.338Z,34.51
2018-07-01T21:46:38.296Z,34.57
2018-07-01T21:49:08.544Z,34.61
2018-07-01T21:51:38.606Z,34.62
2018-07-01T21:54:08.483Z,35.14
2018-07-01T21:56:37.986Z,35.28
2018-07-01T21:59:07.421Z,35.06
2018-07-01T22:01:37.314Z,35.37
2018-07-01T22:04:07.043Z,35.53
2018-07-01T22:06:41.900Z,35.79
2018-07-01T22:09:11.869Z,36.06
2018-07-01T22:11:53.403Z,36.59
2018-07-01T22:14:38.875Z,36.85
2018-07-01T22:17:10.224Z,36.78
2018-07-01T22:19:40.197Z,36.95
2018-07-01T22:22:10.043Z,37.68
2018-07-01T22:24:40.091Z,37.55
2018-07-01T22:27:09.995Z,37.49
2018-07-01T22:29:39.494Z,37.31
2018-07-01T22:32:09.448Z,37.67
2018-07-01T22:34:39.382Z,37.70
2018-07-01T22:37:09.202Z,37.90
2018-07-01T22:39:38.963Z,38.30
2018-07-01T22:42:08.475Z,38.18
2018-07-01T22:44:38.158Z,38.42
2018-07-01T22:47:07.745Z,38.49
2018-07-01T22:49:37.123Z,38.73
2018-07-01T22:52:06.981Z,39.14
2018-07-01T22:54:36.691Z,39.58
2018-07-01T22:57:06.161Z,39.86
2018-07-01T22:59:35.842Z,39.27
2018-07-01T23:03:15.550Z,40.09
2018-07-01T23:05:45.256Z,39.58
2018-07-01T23:08:15.183Z,40.47
2018-07-01T23:10:44.611Z,40.90
2018-07-01T23:13:14.363Z,40.95
2018-07-01T23:15:44.087Z,41.14
2018-07-01T23:18:13.565Z,41.12
2018-07-01T23:20:43.446Z,41.37
2018-07-01T23:23:13.444Z,41.24
2018-07-01T23:25:42.738Z,41.13
2018-07-01T23:28:12.170Z,41.95
2018-07-01T23:30:42.131Z,41.86
2018-07-01T23:33:11.608Z,41.51
2018-07-01T23:35:41.001Z,41.59
2018-07-01T23:38:10.962Z,41.73
2018-07-01T23:40:40.340Z,42.04
2018-07-01T23:43:09.743Z,41.86
2018-07-01T23:45:39.622Z,42.58
2018-07-01T23:48:09.458Z,42.76
2018-07-01T23:50:38.905Z,42.79
2018-07-01T23:53:08.893Z,42.86
2018-07-01T23:55:38.645Z,43.08
2018-07-01T23:58:08.889Z,42.79
